Terminal Aerodrome Forecast
Issued by NWS

Home | Current Version | Previous Version | Graphics & Text | Print | Product List | Glossary On
Versions: 1 2 3 4 5 6 7 8 9 10 11 12 13 14 15 16 17 18 19
000
FTUS43 KMPX 310520
TAFRWF
TAF
KRWF 310520Z 3106/0106 18010KT 6SM BR BKN100
     FM310700 18010KT 6SM BR SCT006
      TEMPO 3107/3111 3SM BR OVC006
     FM311400 19018G26KT P6SM SKC
     FM010000 19008KT P6SM SCT120 BKN250=

USA.gov is the U.S. government's official web portal to all federal, state and local government web resources and services.